Time;durP1;ratioP1;P1;durP2;ratioP2;P2;SDS_P1;SDS_P2;PMS_P1;PMS_P2;Temp;Humidity;BMP_temperature;BMP_pressure;BME280_temperature;BME280_humidity;BME280_pressure;Samples;Min_cycle;Max_cycle;Signal;HPM_P1;HPM_P2
2023/11/17 00:00:17;;;;;;;12.00;6.60;;;;;;;6.90;100.00;101502.44;4923160;29;20151;-68
2023/11/17 00:03:06;;;;;;;15.20;6.80;;;;;;;6.87;100.00;101502.91;4936540;29;20119;-67
2023/11/17 00:05:54;;;;;;;11.18;6.45;;;;;;;6.85;100.00;101497.72;4949436;29;20049;-66
2023/11/17 00:08:42;;;;;;;11.40;6.53;;;;;;;6.87;100.00;101494.78;4951438;29;20603;-67
2023/11/17 00:11:31;;;;;;;9.48;5.90;;;;;;;6.88;100.00;101501.84;4922147;29;20310;-66
2023/11/17 00:14:19;;;;;;;10.80;6.43;;;;;;;6.87;100.00;101509.16;4921891;29;20117;-67
2023/11/17 00:17:10;;;;;;;10.23;5.72;;;;;;;6.87;100.00;101516.47;4918058;29;20572;-67
2023/11/17 00:19:58;;;;;;;10.43;6.20;;;;;;;6.86;100.00;101514.81;4918319;29;20179;-68
2023/11/17 00:22:49;;;;;;;14.48;6.25;;;;;;;6.82;100.00;101517.13;4933260;29;20119;-67
2023/11/17 00:25:39;;;;;;;11.23;6.13;;;;;;;6.83;100.00;101525.03;4921644;29;20148;-68
2023/11/17 00:28:31;;;;;;;10.85;5.97;;;;;;;6.85;100.00;101529.41;4945511;29;20079;-67
2023/11/17 00:31:19;;;;;;;11.57;6.47;;;;;;;6.83;100.00;101522.34;4935334;29;20131;-67
2023/11/17 00:34:08;;;;;;;12.38;5.80;;;;;;;6.82;100.00;101523.38;4920842;29;20054;-66
2023/11/17 00:36:58;;;;;;;10.95;6.30;;;;;;;6.81;100.00;101540.69;4933983;29;20047;-68
2023/11/17 00:39:47;;;;;;;11.00;6.18;;;;;;;6.79;100.00;101537.38;4934744;29;20111;-67
2023/11/17 00:42:36;;;;;;;9.40;5.32;;;;;;;6.76;100.00;101542.44;4920880;29;20036;-67
2023/11/17 00:45:24;;;;;;;9.40;5.95;;;;;;;6.75;100.00;101533.44;4907759;29;20047;-67
2023/11/17 00:48:12;;;;;;;9.85;5.50;;;;;;;6.77;100.00;101534.06;4907463;29;20578;-67
2023/11/17 00:51:02;;;;;;;11.85;6.03;;;;;;;6.80;100.00;101543.63;4919634;29;20048;-68
2023/11/17 00:53:51;;;;;;;10.68;5.75;;;;;;;6.81;100.00;101546.09;4920230;29;20059;-68
2023/11/17 00:56:39;;;;;;;10.93;5.93;;;;;;;6.80;100.00;101547.16;4920627;29;20087;-68
2023/11/17 00:59:28;;;;;;;11.93;6.00;;;;;;;6.78;100.00;101554.69;4920288;29;20499;-68
2023/11/17 01:02:18;;;;;;;14.85;5.90;;;;;;;6.78;100.00;101549.28;4908633;29;20415;-68
2023/11/17 01:05:09;;;;;;;10.02;5.80;;;;;;;6.79;100.00;101553.63;4934889;29;20139;-67
2023/11/17 01:07:58;;;;;;;9.43;5.80;;;;;;;6.80;100.00;101560.69;4946645;29;20059;-68
2023/11/17 01:10:46;;;;;;;11.43;6.05;;;;;;;6.82;100.00;101563.19;4933637;29;20048;-68
2023/11/17 01:13:34;;;;;;;12.98;6.53;;;;;;;6.83;100.00;101564.81;4933916;29;20160;-68
2023/11/17 01:16:22;;;;;;;9.38;5.95;;;;;;;6.82;100.00;101561.28;4908156;29;20056;-68
2023/11/17 01:19:10;;;;;;;10.45;5.60;;;;;;;6.82;100.00;101566.72;4933985;29;20063;-68
2023/11/17 01:21:59;;;;;;;11.52;5.95;;;;;;;6.85;100.00;101568.13;4908200;29;20044;-66
2023/11/17 01:24:47;;;;;;;11.07;5.97;;;;;;;6.88;100.00;101572.28;4920029;29;20055;-67
2023/11/17 01:27:36;;;;;;;8.90;5.43;;;;;;;6.85;100.00;101572.72;4934813;29;20428;-68
2023/11/17 01:30:24;;;;;;;10.70;5.22;;;;;;;6.87;100.00;101582.28;4947415;28;20043;-67
2023/11/17 01:33:12;;;;;;;11.02;5.70;;;;;;;6.90;100.00;101579.13;4934080;29;20531;-68
2023/11/17 01:36:00;;;;;;;10.30;5.75;;;;;;;6.92;100.00;101578.91;4960648;28;20526;-67
2023/11/17 01:38:49;;;;;;;10.55;5.85;;;;;;;6.94;100.00;101577.63;4933408;29;20135;-67
2023/11/17 01:41:42;;;;;;;8.65;5.43;;;;;;;6.96;100.00;101574.72;4908323;29;20397;-66
2023/11/17 01:44:30;;;;;;;11.13;6.20;;;;;;;6.96;100.00;101574.72;4907779;29;20052;-67
2023/11/17 01:47:20;;;;;;;11.20;6.20;;;;;;;6.93;100.00;101575.16;4946451;29;20048;-67
2023/11/17 01:50:14;;;;;;;10.95;5.60;;;;;;;6.93;100.00;101586.00;4946628;29;20119;-67
2023/11/17 01:53:02;;;;;;;10.23;5.80;;;;;;;6.92;100.00;101585.16;4949836;29;20054;-66
2023/11/17 01:55:50;;;;;;;11.50;5.35;;;;;;;6.92;100.00;101589.75;4937242;29;20040;-66
2023/11/17 01:58:38;;;;;;;10.18;5.60;;;;;;;6.90;100.00;101589.13;4943278;29;20142;-66
2023/11/17 02:01:27;;;;;;;9.73;5.55;;;;;;;6.88;100.00;101589.38;4940337;29;20084;-67
2023/11/17 02:04:15;;;;;;;10.70;6.00;;;;;;;6.86;100.00;101596.09;4906169;29;20390;-67
2023/11/17 02:07:24;;;;;;;11.30;5.88;;;;;;;6.85;100.00;101595.22;4906696;29;20047;-67
2023/11/17 02:10:28;;;;;;;10.50;5.78;;;;;;;6.83;100.00;101592.75;4936829;29;20052;-67
2023/11/17 02:13:25;;;;;;;12.82;5.60;;;;;;;6.81;100.00;101589.44;4938197;29;20044;-67
2023/11/17 02:16:24;;;;;;;9.63;6.28;;;;;;;6.82;100.00;101599.22;4905491;29;20044;-66
2023/11/17 02:19:34;;;;;;;9.98;5.78;;;;;;;6.86;100.00;101601.50;4921688;29;20130;-66
2023/11/17 02:22:27;;;;;;;13.10;6.60;;;;;;;6.87;100.00;101603.13;4923106;29;20412;-66
2023/11/17 02:25:15;;;;;;;9.35;5.90;;;;;;;6.89;100.00;101601.88;4911087;29;20085;-66
2023/11/17 02:28:30;;;;;;;9.95;5.75;;;;;;;6.91;100.00;101597.06;4924503;29;20051;-67
2023/11/17 02:31:25;;;;;;;14.18;6.30;;;;;;;6.90;100.00;101602.69;4918060;29;20055;-67
2023/11/17 02:34:15;;;;;;;10.43;5.72;;;;;;;6.91;100.00;101602.47;4918475;29;20048;-67
2023/11/17 02:37:05;;;;;;;14.55;6.50;;;;;;;6.92;100.00;101608.72;4930609;29;20059;-67
2023/11/17 02:39:57;;;;;;;10.52;6.00;;;;;;;6.93;100.00;101607.69;4938311;29;20504;-67
2023/11/17 02:42:48;;;;;;;12.68;6.13;;;;;;;6.93;100.00;101608.50;4937727;29;20044;-65
2023/11/17 02:45:36;;;;;;;10.25;5.82;;;;;;;6.92;100.00;101606.00;4935162;29;20051;-67
2023/11/17 02:48:24;;;;;;;11.57;6.35;;;;;;;6.89;100.00;101603.75;4950671;29;20059;-62
2023/11/17 02:51:18;;;;;;;11.57;5.93;;;;;;;6.87;100.00;101600.44;4955181;28;20186;-66
2023/11/17 02:54:08;;;;;;;11.68;5.78;;;;;;;6.85;100.00;101597.94;4963518;29;20056;-66
2023/11/17 02:56:58;;;;;;;9.65;6.03;;;;;;;6.86;100.00;101599.63;4931591;29;20415;-67
2023/11/17 02:59:48;;;;;;;10.40;6.13;;;;;;;6.91;100.00;101604.34;4950953;29;20128;-62
2023/11/17 03:02:39;;;;;;;12.23;6.28;;;;;;;6.91;100.00;101605.19;4940904;29;20067;-61
2023/11/17 03:05:28;;;;;;;10.27;6.07;;;;;;;6.90;100.00;101605.41;4949436;29;20501;-67
2023/11/17 03:08:19;;;;;;;10.60;6.63;;;;;;;6.89;100.00;101606.47;4940027;28;20059;-67
2023/11/17 03:11:07;;;;;;;11.68;6.10;;;;;;;6.87;100.00;101601.25;4937625;29;20114;-67
2023/11/17 03:13:56;;;;;;;9.82;5.68;;;;;;;6.90;100.00;101605.41;4917892;29;20184;-67
2023/11/17 03:16:51;;;;;;;9.25;6.05;;;;;;;6.92;100.00;101608.72;4904557;29;20048;-66
2023/11/17 03:19:40;;;;;;;10.50;5.97;;;;;;;6.90;100.00;101602.69;4948239;29;20051;-65
2023/11/17 03:22:28;;;;;;;11.05;6.10;;;;;;;6.79;100.00;101599.66;4941957;29;20075;-66
2023/11/17 03:25:17;;;;;;;10.20;5.97;;;;;;;6.77;100.00;101595.53;4943233;29;20051;-67
2023/11/17 03:28:13;;;;;;;11.00;6.25;;;;;;;6.79;100.00;101590.72;4924070;29;20055;-67
2023/11/17 03:31:01;;;;;;;12.88;5.57;;;;;;;6.78;100.00;101600.75;4925139;29;20071;-66
2023/11/17 03:33:50;;;;;;;10.00;5.68;;;;;;;6.78;100.00;101600.75;4914507;29;20484;-68
2023/11/17 03:36:38;;;;;;;12.75;5.47;;;;;;;6.79;100.00;101610.50;4926471;29;20047;-67
2023/11/17 03:39:32;;;;;;;9.65;5.97;;;;;;;6.78;100.00;101600.75;4913698;29;20059;-67
2023/11/17 03:42:20;;;;;;;10.57;6.30;;;;;;;6.81;100.00;101613.00;4951537;29;20138;-67
2023/11/17 03:45:09;;;;;;;10.52;5.72;;;;;;;6.80;100.00;101612.16;4926922;29;20453;-67
2023/11/17 03:47:57;;;;;;;11.25;6.00;;;;;;;6.81;100.00;101611.13;4924311;29;20539;-68
2023/11/17 03:50:45;;;;;;;10.10;6.63;;;;;;;6.81;100.00;101604.88;4923186;29;20047;-67
2023/11/17 03:53:36;;;;;;;11.35;6.20;;;;;;;6.78;100.00;101603.44;4934491;29;20139;-68
2023/11/17 03:56:24;;;;;;;11.45;6.30;;;;;;;6.77;100.00;101603.66;4934942;29;20058;-67
2023/11/17 03:59:13;;;;;;;10.77;5.68;;;;;;;6.76;100.00;101612.84;4935469;29;20119;-67
2023/11/17 04:02:01;;;;;;;11.55;6.60;;;;;;;6.75;100.00;101617.41;4922649;29;20059;-67
2023/11/17 04:04:50;;;;;;;13.30;6.68;;;;;;;6.63;100.00;101611.06;4921880;29;20075;-66
2023/11/17 04:07:38;;;;;;;10.73;5.85;;;;;;;6.50;100.00;101608.50;4922434;29;20130;-67
2023/11/17 04:10:27;;;;;;;10.82;6.45;;;;;;;6.50;100.00;101603.91;4936282;29;20052;-68
2023/11/17 04:13:15;;;;;;;11.88;6.05;;;;;;;6.56;100.00;101618.41;4947889;29;20416;-67
2023/11/17 04:16:03;;;;;;;10.90;6.68;;;;;;;6.61;100.00;101605.03;4922199;29;20059;-67
2023/11/17 04:18:52;;;;;;;10.02;5.55;;;;;;;6.65;100.00;101611.69;4935131;29;20206;-68
2023/11/17 04:21:40;;;;;;;14.40;5.65;;;;;;;6.69;100.00;101612.06;4934558;29;20533;-68
2023/11/17 04:24:29;;;;;;;11.98;6.10;;;;;;;6.72;100.00;101612.44;4934082;28;20171;-68
2023/11/17 04:27:19;;;;;;;9.38;5.85;;;;;;;6.75;100.00;101612.00;4921908;29;20163;-67
2023/11/17 04:30:07;;;;;;;12.95;5.80;;;;;;;6.77;100.00;101600.94;4935407;29;20107;-67
2023/11/17 04:32:57;;;;;;;14.07;6.35;;;;;;;6.74;100.00;101596.81;4920630;29;20139;-68
2023/11/17 04:35:45;;;;;;;9.80;6.18;;;;;;;6.71;100.00;101599.97;4936326;29;20047;-68
2023/11/17 04:38:34;;;;;;;10.50;6.00;;;;;;;6.71;100.00;101596.41;4934719;29;20126;-68
2023/11/17 04:41:23;;;;;;;9.88;6.25;;;;;;;6.72;100.00;101606.22;4934393;29;20485;-67
2023/11/17 04:44:11;;;;;;;13.63;6.72;;;;;;;6.69;100.00;101602.06;4930942;29;20056;-67
2023/11/17 04:46:59;;;;;;;10.50;6.53;;;;;;;6.69;100.00;101606.66;4916428;29;20070;-67
2023/11/17 04:49:47;;;;;;;10.52;6.13;;;;;;;6.68;100.00;101605.81;4916723;29;20048;-67
2023/11/17 04:52:35;;;;;;;11.50;6.32;;;;;;;6.68;100.00;101610.41;4930654;29;20177;-69
2023/11/17 04:55:23;;;;;;;12.38;6.70;;;;;;;6.70;100.00;101613.72;4923102;29;20169;-66
2023/11/17 04:58:12;;;;;;;11.10;6.78;;;;;;;6.68;100.00;101605.81;4932900;29;20047;-66
2023/11/17 05:01:01;;;;;;;12.85;6.63;;;;;;;6.67;100.00;101615.00;4909224;29;20044;-65
2023/11/17 05:03:49;;;;;;;11.38;6.63;;;;;;;6.69;100.00;101607.50;4931869;29;20059;-67
2023/11/17 05:06:37;;;;;;;11.55;6.50;;;;;;;6.69;100.00;101612.06;4940069;29;20058;-67
2023/11/17 05:09:25;;;;;;;12.30;7.05;;;;;;;6.69;100.00;101614.78;4942260;29;20043;-67
2023/11/17 05:12:13;;;;;;;12.35;7.88;;;;;;;6.59;100.00;101616.13;4934436;29;20056;-67
2023/11/17 05:15:02;;;;;;;15.00;8.52;;;;;;;6.55;100.00;101608.66;4935339;29;20044;-66
2023/11/17 05:17:51;;;;;;;12.68;8.23;;;;;;;6.48;100.00;101611.41;4946511;29;20044;-67
2023/11/17 05:20:39;;;;;;;14.88;8.38;;;;;;;6.47;100.00;101614.31;4920114;29;20047;-67
2023/11/17 05:23:27;;;;;;;13.38;7.40;;;;;;;6.49;100.00;101617.66;4909601;29;20512;-67
2023/11/17 05:26:15;;;;;;;11.48;6.97;;;;;;;6.54;100.00;101615.09;4926068;29;20056;-67
2023/11/17 05:29:03;;;;;;;12.43;7.97;;;;;;;6.59;100.00;101626.09;4936256;29;20046;-67
2023/11/17 05:31:51;;;;;;;14.00;8.10;;;;;;;6.62;100.00;101622.97;4935226;29;20127;-67
2023/11/17 05:34:39;;;;;;;14.23;7.65;;;;;;;6.63;100.00;101621.91;4937837;29;20244;-66
2023/11/17 05:37:27;;;;;;;14.13;6.95;;;;;;;6.65;100.00;101613.56;4938548;29;20047;-67
2023/11/17 05:40:16;;;;;;;10.52;7.10;;;;;;;6.65;100.00;101622.50;4911385;29;20043;-67
2023/11/17 05:43:06;;;;;;;12.27;7.45;;;;;;;6.65;100.00;101625.22;4940427;28;20055;-67
2023/11/17 05:45:56;;;;;;;12.63;7.70;;;;;;;6.67;100.00;101623.13;4938743;29;20051;-67
2023/11/17 05:48:44;;;;;;;10.68;7.28;;;;;;;6.67;100.00;101633.94;4913201;29;20054;-67
2023/11/17 05:51:32;;;;;;;12.05;7.28;;;;;;;6.69;100.00;101631.03;4937845;29;20044;-66
2023/11/17 05:54:21;;;;;;;13.60;7.72;;;;;;;6.66;100.00;101629.56;4921942;29;20108;-67
2023/11/17 05:57:13;;;;;;;15.20;7.45;;;;;;;6.64;100.00;101626.28;4248994;29;10001539;-68
2023/11/17 06:00:08;;;;;;;10.77;6.97;;;;;;;6.63;100.00;101631.91;4947985;29;20056;-68
2023/11/17 06:02:59;;;;;;;12.73;7.68;;;;;;;6.62;100.00;101636.50;4917809;29;20081;-67
2023/11/17 06:05:48;;;;;;;11.52;7.20;;;;;;;6.62;100.00;101636.50;4942356;29;20054;-68
2023/11/17 06:08:37;;;;;;;16.23;7.53;;;;;;;6.59;100.00;101637.78;4946491;29;20048;-67
2023/11/17 06:11:25;;;;;;;10.90;7.30;;;;;;;6.60;100.00;101642.13;4946255;29;20060;-67
2023/11/17 06:14:13;;;;;;;10.55;7.50;;;;;;;6.61;100.00;101641.09;4947225;29;20052;-68
2023/11/17 06:17:06;;;;;;;12.45;8.02;;;;;;;6.63;100.00;101635.44;4920594;29;20142;-68
2023/11/17 06:19:54;;;;;;;15.32;7.80;;;;;;;6.61;100.00;101642.94;4933532;29;20054;-69
2023/11/17 06:22:42;;;;;;;11.23;7.35;;;;;;;6.60;100.00;101647.53;4890723;29;20136;-67
2023/11/17 06:25:32;;;;;;;10.77;7.10;;;;;;;6.61;100.00;101654.63;4920115;29;20187;-68
2023/11/17 06:28:20;;;;;;;14.13;7.30;;;;;;;6.62;100.00;101647.34;4935824;29;20090;-67
2023/11/17 06:31:08;;;;;;;12.90;8.38;;;;;;;6.63;100.00;101650.88;4945517;29;20051;-68
2023/11/17 06:33:57;;;;;;;12.50;8.13;;;;;;;6.63;100.00;101650.88;4932988;29;20130;-68
2023/11/17 06:36:46;;;;;;;12.48;7.93;;;;;;;6.61;100.00;101661.91;4920281;29;20040;-67
2023/11/17 06:39:35;;;;;;;11.35;7.80;;;;;;;6.65;100.00;101665.00;4947340;29;20055;-67
2023/11/17 06:42:23;;;;;;;12.65;7.43;;;;;;;6.71;100.00;101664.13;4917511;29;20094;-67
2023/11/17 06:45:11;;;;;;;12.45;7.63;;;;;;;6.74;100.00;101669.13;4928538;29;20175;-67
2023/11/17 06:48:00;;;;;;;13.75;8.90;;;;;;;6.70;100.00;101674.13;4935008;29;20058;-68
2023/11/17 06:50:48;;;;;;;16.00;9.25;;;;;;;6.60;100.00;101671.91;4947061;29;20048;-68
2023/11/17 06:53:36;;;;;;;15.15;9.38;;;;;;;6.60;100.00;101673.81;4919979;29;20530;-67
2023/11/17 06:56:24;;;;;;;17.42;9.60;;;;;;;6.53;100.00;101667.59;4936096;29;20551;-68
2023/11/17 06:59:15;;;;;;;15.82;9.38;;;;;;;6.55;100.00;101670.94;4954408;29;20051;-67
2023/11/17 07:02:03;;;;;;;16.05;9.63;;;;;;;6.54;100.00;101675.53;4928517;29;20207;-68
2023/11/17 07:04:53;;;;;;;17.83;8.82;;;;;;;6.52;100.00;101668.66;4924152;29;20044;-68
2023/11/17 07:07:41;;;;;;;12.20;8.15;;;;;;;6.47;100.00;101679.31;4920228;29;20215;-67
2023/11/17 07:10:30;;;;;;;13.20;8.77;;;;;;;6.42;100.00;101687.25;4936025;29;20109;-66
2023/11/17 07:13:18;;;;;;;13.98;8.48;;;;;;;6.38;100.00;101686.88;4916575;29;20099;-63
2023/11/17 07:16:07;;;;;;;15.38;8.38;;;;;;;6.39;100.00;101694.75;4946799;29;20054;-67
2023/11/17 07:18:55;;;;;;;12.25;8.02;;;;;;;6.43;100.00;101692.47;4919207;29;20052;-68
2023/11/17 07:21:47;;;;;;;14.57;8.98;;;;;;;6.45;100.00;101697.66;4924485;29;20051;-66
2023/11/17 07:24:35;;;;;;;16.33;8.95;;;;;;;6.45;100.00;101697.66;4948712;29;20051;-67
2023/11/17 07:27:23;;;;;;;15.40;9.38;;;;;;;6.45;100.00;101698.50;4947523;29;20063;-67
2023/11/17 07:30:14;;;;;;;16.00;9.77;;;;;;;6.43;100.00;101706.00;4930908;29;20054;-68
2023/11/17 07:33:02;;;;;;;15.48;9.68;;;;;;;6.47;100.00;101696.41;4935065;29;20194;-69
2023/11/17 07:35:50;;;;;;;19.95;10.13;;;;;;;6.52;100.00;101706.56;4958992;28;20043;-67
2023/11/17 07:38:39;;;;;;;15.35;10.38;;;;;;;6.54;100.00;101707.16;4929199;29;20393;-67
2023/11/17 07:41:28;;;;;;;13.57;9.02;;;;;;;6.57;100.00;101707.56;4946134;29;20070;-68
2023/11/17 07:44:16;;;;;;;14.23;9.38;;;;;;;6.62;100.00;101709.63;4928991;29;20047;-68
2023/11/17 07:47:04;;;;;;;15.18;9.27;;;;;;;6.66;100.00;101710.81;4933386;29;20525;-68
2023/11/17 07:49:54;;;;;;;17.38;10.35;;;;;;;6.68;100.00;101708.72;4939403;29;20412;-67
2023/11/17 07:52:45;;;;;;;16.73;9.98;;;;;;;6.70;100.00;101706.63;4927288;29;20043;-68
2023/11/17 07:55:34;;;;;;;15.95;9.90;;;;;;;6.73;100.00;101714.28;4926844;29;20054;-67
2023/11/17 07:58:22;;;;;;;18.83;10.95;;;;;;;6.75;100.00;101714.09;4936215;29;20508;-67
2023/11/17 08:01:10;;;;;;;17.55;10.93;;;;;;;6.75;100.00;101720.31;4897330;29;20040;-67
2023/11/17 08:03:58;;;;;;;18.85;10.23;;;;;;;6.77;100.00;101722.81;4919256;29;20048;-66
2023/11/17 08:06:46;;;;;;;14.48;10.10;;;;;;;6.80;100.00;101734.03;4932884;29;20054;-67
2023/11/17 08:09:35;;;;;;;16.85;10.00;;;;;;;6.82;100.00;101729.22;4923583;29;20108;-67
2023/11/17 08:12:23;;;;;;;14.80;10.60;;;;;;;6.84;100.00;101729.03;4924611;29;20040;-67
2023/11/17 08:15:11;;;;;;;15.68;10.63;;;;;;;6.85;100.00;101735.25;4924272;29;20036;-67
2023/11/17 08:17:59;;;;;;;17.33;10.40;;;;;;;6.86;100.00;101734.22;4930312;29;20051;-66
2023/11/17 08:20:47;;;;;;;16.63;11.18;;;;;;;6.88;100.00;101740.22;4919740;29;20051;-68
2023/11/17 08:23:36;;;;;;;15.95;11.13;;;;;;;6.88;100.00;101741.09;4921510;29;20044;-66
2023/11/17 08:26:24;;;;;;;17.60;11.90;;;;;;;6.88;100.00;101753.78;4920180;29;20059;-66
2023/11/17 08:29:13;;;;;;;17.08;11.95;;;;;;;6.88;100.00;101751.06;4903316;29;20048;-67
2023/11/17 08:32:01;;;;;;;16.17;11.68;;;;;;;6.90;100.00;101751.69;4904039;29;20088;-66
2023/11/17 08:34:49;;;;;;;19.00;12.43;;;;;;;6.90;100.00;101757.09;4892645;29;20097;-66
2023/11/17 08:37:38;;;;;;;16.95;11.88;;;;;;;6.85;100.00;101759.66;4562701;29;10000293;-67
2023/11/17 08:40:26;;;;;;;18.13;11.70;;;;;;;6.81;100.00;101753.84;4900671;29;20127;-67
2023/11/17 08:43:18;;;;;;;17.33;11.82;;;;;;;6.80;100.00;101766.53;4912873;29;20151;-68
2023/11/17 08:46:06;;;;;;;16.40;11.70;;;;;;;6.75;100.00;101763.66;4914456;29;20079;-67
2023/11/17 08:48:56;;;;;;;18.90;11.00;;;;;;;6.78;100.00;101760.53;4913529;29;20056;-68
2023/11/17 08:51:46;;;;;;;22.63;12.80;;;;;;;6.83;100.00;101771.53;4915109;29;20501;-67
2023/11/17 08:54:36;;;;;;;20.25;12.57;;;;;;;6.89;100.00;101771.72;4899639;29;20184;-68
2023/11/17 08:57:25;;;;;;;20.65;12.52;;;;;;;6.88;100.00;101764.59;4913488;29;20687;-68
2023/11/17 09:00:17;;;;;;;20.05;12.70;;;;;;;6.87;100.00;101761.06;4900710;29;20066;-67
2023/11/17 09:03:05;;;;;;;17.38;12.80;;;;;;;6.87;100.00;101765.69;4921409;29;20047;-68
2023/11/17 09:05:54;;;;;;;18.17;12.88;;;;;;;6.87;100.00;101765.69;4915781;29;20048;-68
2023/11/17 09:08:42;;;;;;;20.73;13.52;;;;;;;6.89;100.00;101777.94;4935693;29;20063;-69
2023/11/17 09:11:32;;;;;;;17.63;12.75;;;;;;;6.92;100.00;101773.97;4907171;29;20043;-68
2023/11/17 09:14:20;;;;;;;22.23;13.82;;;;;;;6.94;100.00;101772.69;4916319;29;20075;-68
2023/11/17 09:17:09;;;;;;;18.25;13.50;;;;;;;6.91;100.00;101773.16;4911868;29;20139;-68
2023/11/17 09:19:57;;;;;;;21.15;13.45;;;;;;;6.91;100.00;101773.16;4930675;29;20134;-67
2023/11/17 09:22:46;;;;;;;16.75;13.40;;;;;;;6.96;100.00;101775.19;4925690;29;20108;-68
2023/11/17 09:25:34;;;;;;;23.60;14.40;;;;;;;7.03;100.00;101784.09;4930233;29;20067;-68
2023/11/17 09:28:22;;;;;;;19.08;14.25;;;;;;;7.07;100.00;101781.75;4911457;29;20040;-68
2023/11/17 09:31:10;;;;;;;21.75;14.35;;;;;;;7.11;100.00;101783.81;4925611;29;20048;-68
2023/11/17 09:33:59;;;;;;;25.92;15.80;;;;;;;7.11;100.00;101793.84;4925797;29;20055;-68
2023/11/17 09:36:47;;;;;;;26.58;15.63;;;;;;;7.10;100.00;101800.31;4923307;29;20099;-68
2023/11/17 09:39:35;;;;;;;19.60;14.43;;;;;;;7.12;100.00;101801.75;4937745;29;20051;-68
2023/11/17 09:42:25;;;;;;;20.13;14.70;;;;;;;7.14;100.00;101809.63;4951082;28;20048;-68
2023/11/17 09:45:16;;;;;;;19.77;14.52;;;;;;;7.15;100.00;101806.72;4925920;29;20393;-69
2023/11/17 09:48:07;;;;;;;19.40;14.45;;;;;;;7.15;100.00;101816.75;4932856;29;20048;-69
2023/11/17 09:50:56;;;;;;;22.90;14.27;;;;;;;7.16;100.00;101811.09;4940743;29;20122;-69
2023/11/17 09:53:44;;;;;;;17.90;13.75;;;;;;;7.17;100.00;101820.88;4937394;29;20044;-68
2023/11/17 09:56:32;;;;;;;19.20;13.27;;;;;;;7.20;100.00;101825.84;4950654;29;20054;-68
2023/11/17 09:59:22;;;;;;;19.40;13.88;;;;;;;7.23;100.00;101832.72;4935727;29;20524;-68
2023/11/17 10:02:15;;;;;;;18.95;13.75;;;;;;;7.29;100.00;101839.13;4937747;29;20043;-70
2023/11/17 10:05:05;;;;;;;19.70;13.23;;;;;;;7.32;100.00;101833.28;4949049;29;20075;-68
2023/11/17 10:08:17;;;;;;;20.58;13.77;;;;;;;7.33;100.00;101838.47;4923473;29;20521;-67
2023/11/17 10:11:06;;;;;;;20.27;13.70;;;;;;;7.35;100.00;101832.84;4923098;29;20083;-67
2023/11/17 10:13:56;;;;;;;20.60;13.70;;;;;;;7.35;100.00;101832.84;4924142;29;20052;-68
2023/11/17 10:16:44;;;;;;;18.27;12.63;;;;;;;7.37;100.00;101834.28;4933204;29;20052;-68
2023/11/17 10:19:34;;;;;;;21.92;13.48;;;;;;;7.39;100.00;101842.19;4910413;29;20054;-68
2023/11/17 10:22:22;;;;;;;17.02;12.65;;;;;;;7.41;100.00;101831.97;4948414;29;20416;-67
2023/11/17 10:25:14;;;;;;;16.15;12.05;;;;;;;7.42;100.00;101839.03;4947959;29;20044;-67
2023/11/17 10:28:02;;;;;;;16.60;11.68;;;;;;;7.46;100.00;101845.69;4923815;29;20047;-67
2023/11/17 10:30:54;;;;;;;16.13;11.85;;;;;;;7.48;100.00;101843.56;4941277;29;20055;-67
2023/11/17 10:33:44;;;;;;;17.98;11.68;;;;;;;7.50;100.00;101841.44;4953396;29;20584;-68
2023/11/17 10:36:34;;;;;;;17.38;11.35;;;;;;;7.51;100.00;101848.56;4916481;29;20090;-68
2023/11/17 10:39:22;;;;;;;17.55;12.52;;;;;;;7.48;100.00;101846.28;4910707;29;20056;-69
2023/11/17 10:42:17;;;;;;;19.27;12.07;;;;;;;7.46;100.00;101840.25;4936577;29;20048;-68
2023/11/17 10:45:18;;;;;;;16.58;11.73;;;;;;;7.42;100.00;101839.84;4948902;29;20051;-68
2023/11/17 10:48:07;;;;;;;17.42;11.23;;;;;;;7.43;100.00;101846.09;4923460;29;20044;-69
2023/11/17 10:51:04;;;;;;;17.38;10.77;;;;;;;7.47;100.00;101856.28;4948740;29;20048;-69
2023/11/17 10:54:06;;;;;;;16.75;11.27;;;;;;;7.54;100.00;101853.53;4949380;29;20457;-68
2023/11/17 10:57:09;;;;;;;14.65;9.57;;;;;;;7.56;100.00;101856.84;4941326;29;20044;-67
2023/11/17 10:59:58;;;;;;;14.32;10.00;;;;;;;7.58;100.00;101862.88;4910756;29;20103;-69
2023/11/17 11:02:47;;;;;;;14.02;9.18;;;;;;;7.60;100.00;101858.06;4935113;29;20600;-69
2023/11/17 11:05:35;;;;;;;13.02;8.00;;;;;;;7.66;100.00;101859.88;4911777;29;20167;-69
2023/11/17 11:08:23;;;;;;;12.70;8.90;;;;;;;7.69;100.00;101862.13;4910586;29;20048;-68
2023/11/17 11:11:23;;;;;;;13.65;9.18;;;;;;;7.69;100.00;101859.41;4923412;29;20357;-68
2023/11/17 11:14:16;;;;;;;14.95;9.50;;;;;;;7.71;100.00;101863.81;4921970;29;20044;-68
2023/11/17 11:17:05;;;;;;;14.07;8.50;;;;;;;7.74;100.00;101860.63;4244265;29;9999950;-68
2023/11/17 11:19:55;;;;;;;16.90;11.45;;;;;;;7.74;100.00;101857.94;4932612;29;20056;-68
2023/11/17 11:23:05;;;;;;;16.77;11.20;;;;;;;7.71;100.00;101864.63;4943963;29;20079;-68
2023/11/17 11:25:55;;;;;;;15.20;10.55;;;;;;;7.72;100.00;101868.16;4944662;29;20418;-69
2023/11/17 11:28:45;;;;;;;18.50;11.50;;;;;;;7.72;100.00;101865.44;4947147;29;20503;-68
2023/11/17 11:31:34;;;;;;;17.67;11.13;;;;;;;7.74;100.00;101857.94;4943230;28;20052;-67
2023/11/17 11:34:22;;;;;;;19.08;10.93;;;;;;;7.76;100.00;101872.09;4933804;29;20051;-67
2023/11/17 11:37:10;;;;;;;12.85;8.70;;;;;;;7.76;100.00;101866.69;4922275;29;20519;-64
2023/11/17 11:39:59;;;;;;;10.77;6.88;;;;;;;7.80;100.00;101868.72;4961945;28;20065;-63
2023/11/17 11:42:49;;;;;;;10.38;6.00;;;;;;;7.86;100.00;101869.69;4962416;29;20059;-68
2023/11/17 11:45:37;;;;;;;12.18;6.30;;;;;;;7.91;100.00;101872.56;4933652;29;20047;-67
2023/11/17 11:48:30;;;;;;;11.70;6.32;;;;;;;7.93;100.00;101870.47;4936313;29;20055;-69
2023/11/17 11:51:23;;;;;;;14.18;8.40;;;;;;;7.96;100.00;101866.47;4956706;29;20024;-64
2023/11/17 11:54:11;;;;;;;10.73;6.57;;;;;;;7.97;100.00;101873.56;4902931;29;20056;-67
2023/11/17 11:57:02;;;;;;;11.00;6.43;;;;;;;7.98;100.00;101878.75;4933417;29;20480;-68
2023/11/17 11:59:52;;;;;;;10.70;6.10;;;;;;;7.98;100.00;101886.91;4917418;29;20115;-67
2023/11/17 12:02:55;;;;;;;10.00;5.60;;;;;;;7.98;100.00;101886.91;4916233;28;20063;-68
2023/11/17 12:05:44;;;;;;;13.23;8.38;;;;;;;8.03;100.00;101883.50;4925083;29;20089;-67
2023/11/17 12:08:32;;;;;;;10.48;6.30;;;;;;;8.06;100.00;101897.47;4926440;29;20059;-68
2023/11/17 12:11:21;;;;;;;12.90;6.70;;;;;;;8.08;100.00;101889.94;4902709;29;20040;-68
2023/11/17 12:14:09;;;;;;;11.13;5.97;;;;;;;8.08;100.00;101889.94;4913934;29;20055;-68
2023/11/17 12:17:01;;;;;;;9.65;6.22;;;;;;;8.10;100.00;101895.13;4926022;29;20119;-68
2023/11/17 12:19:50;;;;;;;12.00;6.57;;;;;;;8.12;100.00;101903.88;4913095;29;20420;-68
2023/11/17 12:23:01;;;;;;;13.35;7.68;;;;;;;8.11;100.00;101903.06;4913352;29;20052;-67
2023/11/17 12:25:50;;;;;;;12.20;6.85;;;;;;;8.12;100.00;101893.03;4900578;29;20054;-67
2023/11/17 12:28:39;;;;;;;12.57;7.10;;;;;;;8.13;100.00;101900.13;4924513;29;20059;-67
2023/11/17 12:31:31;;;;;;;10.52;6.55;;;;;;;8.15;100.00;101892.56;4924209;29;20191;-68
2023/11/17 12:34:20;;;;;;;15.68;8.63;;;;;;;8.18;100.00;101891.28;4902793;29;20059;-67
2023/11/17 12:37:08;;;;;;;12.65;7.78;;;;;;;8.20;100.00;101891.88;4900222;29;20160;-68
2023/11/17 12:39:56;;;;;;;16.77;9.77;;;;;;;8.23;100.00;101897.72;4901381;29;20059;-67
2023/11/17 12:42:47;;;;;;;13.88;9.30;;;;;;;8.26;100.00;101901.88;4931112;29;20056;-68
2023/11/17 12:45:35;;;;;;;19.70;11.73;;;;;;;8.28;100.00;101905.19;4917385;29;20133;-68
2023/11/17 12:48:23;;;;;;;14.40;9.55;;;;;;;8.31;100.00;101902.00;4917739;29;20078;-67
2023/11/17 12:51:21;;;;;;;16.40;10.25;;;;;;;8.28;100.00;101903.28;4929069;29;20060;-67
2023/11/17 12:54:16;;;;;;;15.18;9.35;;;;;;;8.27;100.00;101895.38;4914448;29;20082;-67
2023/11/17 12:57:05;;;;;;;16.05;9.95;;;;;;;8.23;100.00;101892.28;4929849;29;20071;-67